createdAt,value
2022-08-19T00:03:45.783Z,16.58
2022-08-19T00:13:51.027Z,16.40
2022-08-19T00:23:54.071Z,16.29
2022-08-19T00:33:58.126Z,16.31
2022-08-19T00:44:06.846Z,16.26
2022-08-19T00:54:11.717Z,15.93
2022-08-19T01:04:14.792Z,15.96
2022-08-19T01:14:19.433Z,15.82
2022-08-19T01:24:23.534Z,15.83
2022-08-19T01:34:26.495Z,15.84
2022-08-19T01:44:30.928Z,15.66
2022-08-19T01:54:34.088Z,15.56
2022-08-19T02:04:39.662Z,15.55
2022-08-19T02:14:42.518Z,15.46
2022-08-19T02:24:47.451Z,15.34
2022-08-19T02:34:50.180Z,15.25
2022-08-19T02:44:55.033Z,15.19
2022-08-19T02:54:58.472Z,15.11
2022-08-19T03:05:04.126Z,15.03
2022-08-19T03:15:09.572Z,15.11
2022-08-19T03:25:13.899Z,15.06
2022-08-19T03:35:17.093Z,15.03
2022-08-19T03:45:22.123Z,14.98
2022-08-19T03:55:24.810Z,14.88
2022-08-19T04:05:30.447Z,14.82
2022-08-19T04:15:40.355Z,14.82
2022-08-19T04:25:46.168Z,14.87
2022-08-19T04:35:50.883Z,14.96
2022-08-19T04:45:56.461Z,14.97
2022-08-19T04:56:08.949Z,14.93
2022-08-19T05:06:16.137Z,14.88
2022-08-19T05:16:22.882Z,14.95
2022-08-19T05:26:27.236Z,15.23
2022-08-19T05:36:35.634Z,15.30
2022-08-19T05:46:40.897Z,15.36
2022-08-19T05:56:43.904Z,15.30
2022-08-19T06:06:48.269Z,15.41
2022-08-19T06:16:53.162Z,15.44
2022-08-19T06:27:01.004Z,15.69
2022-08-19T06:37:06.607Z,15.90
2022-08-19T06:47:14.611Z,16.05
2022-08-19T06:57:18.128Z,16.16
2022-08-19T07:07:23.401Z,16.60
2022-08-19T07:17:27.093Z,17.13
2022-08-19T07:27:31.318Z,17.75
2022-08-19T07:37:37.963Z,18.28
2022-08-19T07:47:47.469Z,18.44
2022-08-19T07:57:53.214Z,18.91
2022-08-19T08:08:14.605Z,19.38
2022-08-19T08:18:17.553Z,19.82
2022-08-19T08:28:21.686Z,20.25
2022-08-19T08:38:24.799Z,20.88
2022-08-19T08:48:39.727Z,21.46
2022-08-19T08:58:54.436Z,21.92
2022-08-19T09:09:11.849Z,22.03
2022-08-19T09:19:15.160Z,22.53
2022-08-19T09:29:26.524Z,22.99
2022-08-19T09:39:36.139Z,23.54
2022-08-19T09:49:41.320Z,24.14
2022-08-19T09:59:45.356Z,24.60
2022-08-19T10:09:49.410Z,24.75
2022-08-19T10:19:55.158Z,24.95
2022-08-19T10:30:00.253Z,25.73
2022-08-19T10:40:06.405Z,25.81
2022-08-19T10:50:28.984Z,25.82
2022-08-19T11:00:33.471Z,25.78
2022-08-19T11:10:37.561Z,25.30
2022-08-19T11:20:40.313Z,25.79
2022-08-19T11:30:44.372Z,27.53
2022-08-19T11:40:47.103Z,33.49
2022-08-19T11:50:51.610Z,35.26
2022-08-19T12:00:54.481Z,30.81
2022-08-19T12:10:58.689Z,31.78
2022-08-19T12:21:02.407Z,35.59
2022-08-19T12:31:07.122Z,36.46
2022-08-19T12:41:13.461Z,39.48
2022-08-19T12:51:20.335Z,39.00
2022-08-19T13:01:23.531Z,34.25
2022-08-19T13:11:27.731Z,31.60
2022-08-19T13:21:31.794Z,30.34
2022-08-19T13:31:55.967Z,29.53
2022-08-19T13:41:59.187Z,28.59
2022-08-19T13:52:03.747Z,28.14
2022-08-19T14:02:07.300Z,27.65
2022-08-19T14:12:11.513Z,27.40
2022-08-19T14:22:14.245Z,27.02
2022-08-19T14:32:18.592Z,26.99
2022-08-19T14:42:21.523Z,27.06
2022-08-19T14:52:26.076Z,26.92
2022-08-19T15:02:34.966Z,26.98
2022-08-19T15:12:41.659Z,27.73
2022-08-19T15:22:44.495Z,28.24
2022-08-19T15:32:49.246Z,28.01
2022-08-19T15:42:52.187Z,27.93
2022-08-19T15:53:00.848Z,27.60
2022-08-19T16:03:20.411Z,27.32
2022-08-19T16:13:25.543Z,26.66
2022-08-19T16:23:28.615Z,26.08
2022-08-19T16:33:32.943Z,25.32
2022-08-19T16:43:35.662Z,24.76
2022-08-19T16:53:41.218Z,24.50
2022-08-19T17:03:45.342Z,24.40
2022-08-19T17:13:50.903Z,24.34
2022-08-19T17:23:54.334Z,24.28
2022-08-19T17:33:58.916Z,24.13
2022-08-19T17:44:02.807Z,24.02
2022-08-19T17:54:08.537Z,23.94
2022-08-19T18:04:11.320Z,23.89
2022-08-19T18:14:15.563Z,23.72
2022-08-19T18:24:18.647Z,23.55
2022-08-19T18:34:23.661Z,23.51
2022-08-19T18:44:43.893Z,23.42
2022-08-19T18:54:48.266Z,23.15
2022-08-19T19:04:51.152Z,22.94
2022-08-19T19:14:55.508Z,22.68
2022-08-19T19:24:59.396Z,22.49
2022-08-19T19:35:05.880Z,22.37
2022-08-19T19:45:09.893Z,22.36
2022-08-19T19:55:17.830Z,22.19
2022-08-19T20:05:21.903Z,22.11
2022-08-19T20:15:26.276Z,22.06
2022-08-19T20:25:29.147Z,21.94
2022-08-19T20:35:34.076Z,21.81
2022-08-19T20:45:38.902Z,21.62
2022-08-19T20:55:44.716Z,21.62
2022-08-19T21:05:48.179Z,21.68
2022-08-19T21:15:52.908Z,21.64
2022-08-19T21:25:57.297Z,21.66
2022-08-19T21:36:01.367Z,21.62
2022-08-19T21:46:04.611Z,21.53
2022-08-19T21:56:08.956Z,21.45
2022-08-19T22:06:11.700Z,21.36
2022-08-19T22:16:17.995Z,21.37
2022-08-19T22:26:20.736Z,21.31
2022-08-19T22:36:26.948Z,21.29
2022-08-19T22:46:29.833Z,21.27
2022-08-19T22:56:34.746Z,21.24
2022-08-19T23:06:41.461Z,21.29
2022-08-19T23:16:50.989Z,21.18
2022-08-19T23:27:11.856Z,21.09
2022-08-19T23:37:16.124Z,21.06
2022-08-19T23:47:18.818Z,21.10
2022-08-19T23:57:22.990Z,21.08
